createdAt,value
2018-05-14T00:00:06.613Z,100218.05
2018-05-14T00:01:09.110Z,100220.23
2018-05-14T00:02:11.641Z,100218.09
2018-05-14T00:03:14.118Z,100211.22
2018-05-14T00:04:16.611Z,100217.38
2018-05-14T00:05:19.101Z,100216.97
2018-05-14T00:06:21.620Z,100210.86
2018-05-14T00:07:24.154Z,100207.11
2018-05-14T00:08:26.656Z,100213.87
2018-05-14T00:09:29.206Z,100214.86
2018-05-14T00:10:31.708Z,100212.31
2018-05-14T00:11:34.205Z,100211.91
2018-05-14T00:12:36.718Z,100210.70
2018-05-14T00:13:39.191Z,100213.63
2018-05-14T00:14:41.689Z,100215.37
2018-05-14T00:15:44.174Z,100217.73
2018-05-14T00:16:46.658Z,100220.69
2018-05-14T00:17:49.173Z,100210.81
2018-05-14T00:18:51.647Z,100209.80
2018-05-14T00:19:54.148Z,100215.33
2018-05-14T00:20:56.684Z,100213.33
2018-05-14T00:21:59.165Z,100208.55
2018-05-14T00:23:01.702Z,100207.93
2018-05-14T00:24:04.266Z,100206.33
2018-05-14T00:25:06.824Z,100204.72
2018-05-14T00:26:09.316Z,100207.27
2018-05-14T00:27:11.808Z,100202.72
2018-05-14T00:28:14.323Z,100201.70
2018-05-14T00:29:17.556Z,100200.48
2018-05-14T00:30:20.134Z,100198.48
2018-05-14T00:31:22.659Z,100194.08
2018-05-14T00:32:25.167Z,100196.23
2018-05-14T00:33:27.708Z,100191.86
2018-05-14T00:34:30.191Z,100192.84
2018-05-14T00:35:32.714Z,100189.85
2018-05-14T00:36:35.209Z,100191.81
2018-05-14T00:37:37.716Z,100190.03
2018-05-14T00:38:40.237Z,100192.40
2018-05-14T00:39:42.720Z,100191.20
2018-05-14T00:40:45.245Z,100189.41
2018-05-14T00:41:47.720Z,100184.28
2018-05-14T00:42:50.204Z,100187.41
2018-05-14T00:43:52.721Z,100183.26
2018-05-14T00:44:55.503Z,100184.23
2018-05-14T00:45:58.026Z,100180.89
2018-05-14T00:47:00.588Z,100182.86
2018-05-14T00:48:03.148Z,100178.30
2018-05-14T00:49:05.654Z,100179.69
2018-05-14T00:50:08.163Z,100174.34
2018-05-14T00:51:10.657Z,100176.30
2018-05-14T00:52:13.152Z,100173.72
2018-05-14T00:53:15.658Z,100171.93
2018-05-14T00:54:18.184Z,100174.30
2018-05-14T00:55:20.665Z,100174.30
2018-05-14T00:56:23.152Z,100171.31
2018-05-14T00:57:25.673Z,100172.47
2018-05-14T00:58:28.168Z,100177.02
2018-05-14T00:59:30.680Z,100175.23
2018-05-14T01:00:33.162Z,100169.88
2018-05-14T01:01:35.643Z,100171.67
2018-05-14T01:02:38.136Z,100168.50
2018-05-14T01:03:40.629Z,100170.47
2018-05-14T01:04:43.141Z,100174.61
2018-05-14T01:05:45.637Z,100172.03
2018-05-14T01:06:48.204Z,100171.05
2018-05-14T01:07:50.762Z,100180.33
2018-05-14T01:08:53.310Z,100169.81
2018-05-14T01:09:55.825Z,100175.41
2018-05-14T01:10:58.321Z,100178.58
2018-05-14T01:12:00.831Z,100179.02
2018-05-14T01:13:03.328Z,100187.55
2018-05-14T01:14:05.829Z,100186.78
2018-05-14T01:15:08.332Z,100191.78
2018-05-14T01:16:10.807Z,100192.58
2018-05-14T01:17:13.297Z,100193.20
2018-05-14T01:18:15.790Z,100194.22
2018-05-14T01:19:18.299Z,100186.55
2018-05-14T01:20:20.869Z,100185.97
2018-05-14T01:21:23.364Z,100178.65
2018-05-14T01:22:25.860Z,100181.02
2018-05-14T01:23:28.363Z,100184.00
2018-05-14T01:24:30.879Z,100177.89
2018-05-14T01:25:33.393Z,100172.94
2018-05-14T01:26:35.862Z,100176.10
2018-05-14T01:27:38.344Z,100177.09
2018-05-14T01:28:40.826Z,100179.45
2018-05-14T01:29:43.320Z,100181.64
2018-05-14T01:30:45.854Z,100170.97
2018-05-14T01:31:48.416Z,100174.97
2018-05-14T01:32:50.978Z,100168.78
2018-05-14T01:33:53.491Z,100177.09
2018-05-14T01:34:55.980Z,100170.13
2018-05-14T01:35:58.504Z,100167.36
2018-05-14T01:37:00.996Z,100163.21
2018-05-14T01:38:03.511Z,100163.58
2018-05-14T01:39:05.983Z,100159.83
2018-05-14T01:40:08.473Z,100166.52
2018-05-14T01:41:10.971Z,100160.19
2018-05-14T01:42:13.477Z,100167.10
2018-05-14T01:43:16.065Z,100162.16
2018-05-14T01:44:18.569Z,100158.41
2018-05-14T01:45:21.084Z,100158.41
2018-05-14T01:46:23.615Z,100157.42
2018-05-14T01:47:26.106Z,100157.23
2018-05-14T01:48:28.586Z,100151.31
2018-05-14T01:49:31.079Z,100152.87
2018-05-14T01:50:33.577Z,100156.44
2018-05-14T01:51:36.140Z,100154.66
2018-05-14T01:52:38.701Z,100157.02
2018-05-14T01:53:41.212Z,100153.67
2018-05-14T01:54:43.695Z,100161.43
2018-05-14T01:55:46.190Z,100160.27
2018-05-14T01:56:48.679Z,100158.70
2018-05-14T01:57:51.162Z,100163.66
2018-05-14T01:58:53.642Z,100155.76
2018-05-14T01:59:56.128Z,100157.39
2018-05-14T02:00:58.685Z,100159.98
2018-05-14T02:02:01.173Z,100161.98
2018-05-14T02:03:03.652Z,100162.96
2018-05-14T02:04:06.145Z,100166.31
2018-05-14T02:05:08.621Z,100167.47
2018-05-14T02:06:11.094Z,100164.12
2018-05-14T02:07:13.586Z,100171.38
2018-05-14T02:08:16.091Z,100164.64
2018-05-14T02:09:18.566Z,100162.45
2018-05-14T02:10:21.072Z,100163.03
2018-05-14T02:11:23.548Z,100159.28
2018-05-14T02:12:26.043Z,100162.81
2018-05-14T02:13:28.560Z,100154.88
2018-05-14T02:14:31.067Z,100158.22
2018-05-14T02:15:33.588Z,100161.79
2018-05-14T02:16:36.136Z,100159.38
2018-05-14T02:17:38.712Z,100152.25
2018-05-14T02:18:41.198Z,100154.44
2018-05-14T02:19:43.719Z,100156.17
2018-05-14T02:20:46.223Z,100157.56
2018-05-14T02:21:48.725Z,100159.52
2018-05-14T02:22:51.236Z,100155.55
2018-05-14T02:23:53.743Z,100149.22
2018-05-14T02:24:56.264Z,100154.35
2018-05-14T02:25:58.756Z,100148.78
2018-05-14T02:27:01.231Z,100152.53
2018-05-14T02:28:03.730Z,100144.23
2018-05-14T02:29:06.218Z,100143.83
2018-05-14T02:30:08.710Z,100138.30
2018-05-14T02:31:11.220Z,100138.08
2018-05-14T02:32:13.719Z,100135.09
2018-05-14T02:33:16.237Z,100141.02
2018-05-14T02:34:18.733Z,100135.49
2018-05-14T02:35:21.213Z,100139.79
2018-05-14T02:36:23.683Z,100147.28
2018-05-14T02:37:26.169Z,100146.88
2018-05-14T02:38:28.678Z,100157.95
2018-05-14T02:39:31.187Z,100152.77
2018-05-14T02:40:33.807Z,100154.16
2018-05-14T02:41:36.364Z,100155.14
2018-05-14T02:42:38.874Z,100156.52
2018-05-14T02:43:41.398Z,100164.82
2018-05-14T02:44:43.877Z,100161.83
2018-05-14T02:45:46.354Z,100161.44
2018-05-14T02:46:48.828Z,100163.80
2018-05-14T02:47:51.335Z,100163.80
2018-05-14T02:48:53.826Z,100160.81
2018-05-14T02:49:56.326Z,100159.65
2018-05-14T02:50:58.827Z,100161.61
2018-05-14T02:52:01.320Z,100157.47
2018-05-14T02:53:03.847Z,100160.01
2018-05-14T02:54:06.357Z,100157.64
2018-05-14T02:55:08.866Z,100157.24
2018-05-14T02:56:11.349Z,100160.41
2018-05-14T02:57:13.849Z,100160.59
2018-05-14T02:58:16.343Z,100156.22
2018-05-14T02:59:18.841Z,100164.52
2018-05-14T03:00:21.416Z,100159.97
2018-05-14T03:01:23.908Z,100159.97
2018-05-14T03:02:26.383Z,100159.56
2018-05-14T03:03:28.895Z,100160.73
2018-05-14T03:04:31.419Z,100159.89
2018-05-14T03:05:33.891Z,100158.36
2018-05-14T03:06:36.886Z,100152.66
2018-05-14T03:07:39.447Z,100151.05
2018-05-14T03:08:42.310Z,100155.20
2018-05-14T03:09:44.973Z,100161.93
2018-05-14T03:10:47.483Z,100158.77
2018-05-14T03:11:49.999Z,100161.12
2018-05-14T03:12:52.493Z,100163.72
2018-05-14T03:13:54.971Z,100160.15
2018-05-14T03:14:57.497Z,100162.73
2018-05-14T03:15:59.975Z,100160.55
2018-05-14T03:17:02.468Z,100156.98
2018-05-14T03:18:04.972Z,100165.09
2018-05-14T03:19:07.457Z,100161.12
2018-05-14T03:20:09.955Z,100157.97
2018-05-14T03:21:12.426Z,100156.58
2018-05-14T03:22:14.910Z,100157.56
2018-05-14T03:23:17.392Z,100153.41
2018-05-14T03:24:19.886Z,100150.65
2018-05-14T03:25:22.393Z,100146.25
2018-05-14T03:26:24.892Z,100146.83
2018-05-14T03:27:27.438Z,100158.69
2018-05-14T03:28:29.955Z,100160.08
2018-05-14T03:29:32.438Z,100160.66
2018-05-14T03:30:34.950Z,100157.31
2018-05-14T03:31:37.507Z,100158.47
2018-05-14T03:32:40.066Z,100150.98
2018-05-14T03:33:42.567Z,100153.74
2018-05-14T03:34:45.058Z,100149.77
2018-05-14T03:35:47.579Z,100142.68
2018-05-14T03:36:50.073Z,100147.01
2018-05-14T03:37:52.565Z,100145.45
2018-05-14T03:38:55.061Z,100147.01
2018-05-14T03:39:57.564Z,100146.03
2018-05-14T03:41:00.063Z,100147.81
2018-05-14T03:42:02.535Z,100148.39
2018-05-14T03:43:05.006Z,100147.41
2018-05-14T03:44:07.476Z,100152.14
2018-05-14T03:45:09.965Z,100146.61
2018-05-14T03:46:12.478Z,100151.16
2018-05-14T03:47:14.959Z,100147.59
2018-05-14T03:48:17.463Z,100147.77
2018-05-14T03:49:19.952Z,100142.82
2018-05-14T03:50:22.445Z,100142.64
2018-05-14T03:51:24.934Z,100140.28
2018-05-14T03:52:27.420Z,100136.53
2018-05-14T03:53:29.908Z,100132.78
2018-05-14T03:54:32.411Z,100133.19
2018-05-14T03:55:34.900Z,100130.20
2018-05-14T03:56:37.394Z,100130.20
2018-05-14T03:57:39.903Z,100140.45
2018-05-14T03:58:54.084Z,100142.24
2018-05-14T04:00:08.439Z,100136.09
2018-05-14T04:01:13.863Z,100131.14
2018-05-14T04:02:28.083Z,100137.25
2018-05-14T04:03:42.448Z,100121.61
2018-05-14T04:04:56.625Z,100120.41
2018-05-14T04:06:10.993Z,100120.59
2018-05-14T04:07:13.489Z,100121.75
2018-05-14T04:08:16.005Z,100123.53
2018-05-14T04:09:18.505Z,100129.24
2018-05-14T04:10:21.955Z,100130.22
2018-05-14T04:11:24.463Z,100128.84
2018-05-14T04:12:26.974Z,100132.19
2018-05-14T04:13:29.484Z,100128.84
2018-05-14T04:14:31.977Z,100138.92
2018-05-14T04:15:34.488Z,100136.16
2018-05-14T04:16:36.999Z,100141.69
2018-05-14T04:17:39.508Z,100134.19
2018-05-14T04:18:42.014Z,100135.57
2018-05-14T04:19:44.512Z,100135.39
2018-05-14T04:20:47.004Z,100132.80
2018-05-14T04:21:49.498Z,100138.56
2018-05-14T04:22:51.996Z,100138.38
2018-05-14T04:23:54.509Z,100139.94
2018-05-14T04:24:56.990Z,100143.91
2018-05-14T04:25:59.481Z,100144.48
2018-05-14T04:27:01.979Z,100144.09
2018-05-14T04:28:04.472Z,100143.28
2018-05-14T04:29:06.981Z,100139.72
2018-05-14T04:30:09.547Z,100143.65
2018-05-14T04:31:12.005Z,100139.09
2018-05-14T04:32:14.482Z,100138.12
2018-05-14T04:33:16.997Z,100138.52
2018-05-14T04:34:19.492Z,100134.95
2018-05-14T04:35:21.999Z,100138.08
2018-05-14T04:36:24.566Z,100132.14
2018-05-14T04:37:27.088Z,100136.11
2018-05-14T04:38:29.607Z,100139.28
2018-05-14T04:39:32.136Z,100137.50
2018-05-14T04:40:34.663Z,100141.24
2018-05-14T04:41:37.226Z,100143.25
2018-05-14T04:42:39.794Z,100141.10
2018-05-14T04:43:42.293Z,100137.72
2018-05-14T04:44:44.795Z,100147.39
2018-05-14T04:45:47.290Z,100145.61
2018-05-14T04:46:49.820Z,100141.64
2018-05-14T04:47:52.380Z,100147.36
2018-05-14T04:48:54.941Z,100140.95
2018-05-14T04:49:57.491Z,100143.31
2018-05-14T04:51:00.014Z,100137.97
2018-05-14T04:52:02.528Z,100141.31
2018-05-14T04:53:05.006Z,100140.52
2018-05-14T04:54:07.516Z,100134.94
2018-05-14T04:55:10.033Z,100131.16
2018-05-14T04:56:12.528Z,100132.53
2018-05-14T04:57:15.014Z,100128.97
2018-05-14T04:58:17.520Z,100131.16
2018-05-14T04:59:20.137Z,100124.24
2018-05-14T05:00:22.576Z,100117.16
2018-05-14T05:01:25.136Z,100127.05
2018-05-14T05:02:27.636Z,100117.78
2018-05-14T05:03:30.118Z,100117.55
2018-05-14T05:04:32.617Z,100120.67
2018-05-14T05:05:35.125Z,100118.80
2018-05-14T05:06:37.758Z,100120.31
2018-05-14T05:07:40.265Z,100123.22
2018-05-14T05:08:42.743Z,100130.66
2018-05-14T05:09:45.250Z,100130.84
2018-05-14T05:10:47.775Z,100129.82
2018-05-14T05:11:50.266Z,100129.78
2018-05-14T05:12:52.761Z,100124.40
2018-05-14T05:13:55.310Z,100126.14
2018-05-14T05:14:57.808Z,100127.30
2018-05-14T05:16:00.325Z,100126.45
2018-05-14T05:17:02.900Z,100127.34
2018-05-14T05:18:05.341Z,100130.24
2018-05-14T05:19:07.837Z,100129.98
2018-05-14T05:20:10.351Z,100138.59
2018-05-14T05:21:12.870Z,100138.37
2018-05-14T05:22:15.385Z,100139.75
2018-05-14T05:23:18.009Z,100145.41
2018-05-14T05:24:20.567Z,100140.15
2018-05-14T05:25:23.133Z,100140.33
2018-05-14T05:26:25.687Z,100142.69
2018-05-14T05:27:28.201Z,100135.16
2018-05-14T05:28:30.759Z,100139.13
2018-05-14T05:29:33.221Z,100138.73
2018-05-14T05:30:35.716Z,100138.73
2018-05-14T05:31:38.267Z,100138.73
2018-05-14T05:32:40.765Z,100140.51
2018-05-14T05:33:43.305Z,100144.66
2018-05-14T05:34:45.861Z,100142.87
2018-05-14T05:35:48.346Z,100147.99
2018-05-14T05:36:50.842Z,100147.59
2018-05-14T05:37:53.403Z,100152.98
2018-05-14T05:38:55.843Z,100144.07
2018-05-14T05:39:58.326Z,100155.13
2018-05-14T05:41:00.825Z,100154.14
2018-05-14T05:42:03.373Z,100150.40
2018-05-14T05:43:05.867Z,100153.34
2018-05-14T05:44:08.347Z,100153.16
2018-05-14T05:45:10.848Z,100155.75
2018-05-14T05:46:13.378Z,100152.00
2018-05-14T05:47:15.905Z,100148.84
2018-05-14T05:48:18.390Z,100149.64
2018-05-14T05:49:20.891Z,100148.08
2018-05-14T05:50:23.370Z,100152.66
2018-05-14T05:51:25.846Z,100153.06
2018-05-14T05:52:28.392Z,100150.84
2018-05-14T05:53:31.001Z,100148.92
2018-05-14T05:54:33.558Z,100152.48
2018-05-14T05:55:36.158Z,100153.46
2018-05-14T05:56:38.657Z,100148.52
2018-05-14T05:57:41.243Z,100155.64
2018-05-14T05:58:43.783Z,100157.03
2018-05-14T05:59:46.384Z,100158.98
2018-05-14T06:00:48.867Z,100153.06
2018-05-14T06:01:51.374Z,100154.84
2018-05-14T06:02:53.904Z,100158.98
2018-05-14T06:03:56.621Z,100159.79
2018-05-14T06:04:59.139Z,100164.91
2018-05-14T06:06:01.649Z,100160.38
2018-05-14T06:07:04.144Z,100160.38
2018-05-14T06:08:06.668Z,100160.77
2018-05-14T06:09:09.179Z,100157.61
2018-05-14T06:10:11.663Z,100162.95
2018-05-14T06:11:14.160Z,100158.19
2018-05-14T06:12:16.662Z,100163.13
2018-05-14T06:13:19.181Z,100157.61
2018-05-14T06:14:21.678Z,100152.66
2018-05-14T06:15:24.274Z,100154.04
2018-05-14T06:16:26.722Z,100154.44
2018-05-14T06:17:29.202Z,100155.57
2018-05-14T06:18:31.708Z,100156.63
2018-05-14T06:19:34.209Z,100155.83
2018-05-14T06:20:36.727Z,100157.20
2018-05-14T06:21:39.202Z,100153.46
2018-05-14T06:22:41.710Z,100150.70
2018-05-14T06:23:44.239Z,100148.52
2018-05-14T06:24:46.755Z,100147.53
2018-05-14T06:25:49.240Z,100151.68
2018-05-14T06:26:51.821Z,100153.06
2018-05-14T06:27:54.439Z,100147.36
2018-05-14T06:28:56.943Z,100145.58
2018-05-14T06:29:59.434Z,100145.75
2018-05-14T06:31:01.914Z,100145.17
2018-05-14T06:32:04.431Z,100138.27
2018-05-14T06:33:06.933Z,100141.03
2018-05-14T06:34:09.453Z,100143.80
2018-05-14T06:35:11.950Z,100141.25
2018-05-14T06:36:14.453Z,100141.83
2018-05-14T06:37:16.958Z,100138.09
2018-05-14T06:38:19.481Z,100139.47
2018-05-14T06:39:21.994Z,100139.06
2018-05-14T06:40:24.492Z,100143.61
2018-05-14T06:41:26.983Z,100140.45
2018-05-14T06:42:29.491Z,100138.09
2018-05-14T06:43:31.995Z,100146.38
2018-05-14T06:44:34.509Z,100143.61
2018-05-14T06:45:37.084Z,100148.16
2018-05-14T06:46:39.581Z,100144.81
2018-05-14T06:47:42.077Z,100146.20
2018-05-14T06:48:44.573Z,100154.89
2018-05-14T06:49:47.091Z,100157.65
2018-05-14T06:50:49.617Z,100156.67
2018-05-14T06:51:52.110Z,100158.45
2018-05-14T06:52:54.635Z,100163.00
2018-05-14T06:53:57.147Z,100161.62
2018-05-14T06:54:59.642Z,100168.75
2018-05-14T06:56:02.141Z,100157.88
2018-05-14T06:57:04.636Z,100162.02
2018-05-14T06:58:07.136Z,100167.95
2018-05-14T06:59:09.619Z,100162.82
2018-05-14T07:00:12.211Z,100161.84
2018-05-14T07:01:14.717Z,100166.56
2018-05-14T07:02:17.224Z,100167.95
2018-05-14T07:03:19.703Z,100165.19
2018-05-14T07:04:22.182Z,100165.19
2018-05-14T07:05:24.700Z,100165.98
2018-05-14T07:06:27.232Z,100157.88
2018-05-14T07:07:29.742Z,100157.47
2018-05-14T07:08:32.251Z,100157.47
2018-05-14T07:09:34.763Z,100159.25
2018-05-14T07:10:37.341Z,100159.25
2018-05-14T07:11:39.837Z,100163.00
2018-05-14T07:12:42.401Z,100164.95
2018-05-14T07:13:44.892Z,100160.81
2018-05-14T07:14:47.397Z,100162.02
2018-05-14T07:15:49.928Z,100161.22
2018-05-14T07:16:52.417Z,100154.31
2018-05-14T07:17:54.901Z,100155.11
2018-05-14T07:18:57.400Z,100153.73
2018-05-14T07:19:59.901Z,100150.56
2018-05-14T07:21:02.433Z,100153.73
2018-05-14T07:22:04.944Z,100150.16
2018-05-14T07:23:07.441Z,100156.49
2018-05-14T07:24:09.941Z,100163.41
2018-05-14T07:25:12.424Z,100165.58
2018-05-14T07:26:14.932Z,100177.03
2018-05-14T07:27:17.425Z,100173.52
2018-05-14T07:28:19.936Z,100179.84
2018-05-14T07:29:22.429Z,100181.67
2018-05-14T07:30:24.924Z,100189.16
2018-05-14T07:31:27.423Z,100181.67
2018-05-14T07:32:29.917Z,100184.44
2018-05-14T07:33:32.413Z,100184.62
2018-05-14T07:34:34.891Z,100183.64
2018-05-14T07:35:37.370Z,100181.86
2018-05-14T07:36:39.880Z,100181.05
2018-05-14T07:37:42.368Z,100181.62
2018-05-14T07:38:44.877Z,100179.67
2018-05-14T07:39:47.359Z,100178.69
2018-05-14T07:40:49.848Z,100178.52
2018-05-14T07:41:52.365Z,100178.16
2018-05-14T07:42:54.851Z,100181.72
2018-05-14T07:43:57.345Z,100177.17
2018-05-14T07:44:59.968Z,100182.52
2018-05-14T07:46:02.397Z,100176.82
2018-05-14T07:47:04.924Z,100177.80
2018-05-14T07:48:07.420Z,100176.82
2018-05-14T07:49:10.054Z,100179.98
2018-05-14T07:50:12.452Z,100176.82
2018-05-14T07:51:14.981Z,100176.82
2018-05-14T07:52:17.504Z,100185.52
2018-05-14T07:53:19.997Z,100181.94
2018-05-14T07:54:22.568Z,100187.30
2018-05-14T07:55:25.034Z,100188.27
2018-05-14T07:56:27.548Z,100195.98
2018-05-14T07:57:30.051Z,100186.49
2018-05-14T07:58:32.541Z,100189.83
2018-05-14T07:59:35.032Z,100189.43
2018-05-14T08:00:37.605Z,100197.14
2018-05-14T08:01:40.109Z,100196.34
2018-05-14T08:02:42.628Z,100190.81
2018-05-14T08:03:45.124Z,100191.80
2018-05-14T08:04:47.636Z,100191.80
2018-05-14T08:05:50.141Z,100189.03
2018-05-14T08:06:52.628Z,100181.72
2018-05-14T08:07:55.149Z,100185.06
2018-05-14T08:08:57.797Z,100185.46
2018-05-14T08:10:00.188Z,100186.84
2018-05-14T08:11:02.770Z,100188.63
2018-05-14T08:12:05.270Z,100182.70
2018-05-14T08:13:07.789Z,100184.66
2018-05-14T08:14:10.270Z,100182.08
2018-05-14T08:15:12.852Z,100181.09
2018-05-14T08:16:15.383Z,100181.90
2018-05-14T08:17:17.891Z,100180.52
2018-05-14T08:18:20.389Z,100185.64
2018-05-14T08:19:22.881Z,100181.90
2018-05-14T08:20:25.401Z,100184.08
2018-05-14T08:21:27.932Z,100184.27
2018-05-14T08:22:30.443Z,100183.50
2018-05-14T08:23:33.030Z,100187.42
2018-05-14T08:24:35.500Z,100185.06
2018-05-14T08:25:37.988Z,100180.52
2018-05-14T08:26:40.485Z,100180.52
2018-05-14T08:27:42.987Z,100177.35
2018-05-14T08:28:45.481Z,100172.23
2018-05-14T08:29:48.074Z,100177.35
2018-05-14T08:30:50.577Z,100177.35
2018-05-14T08:31:53.080Z,100174.19
2018-05-14T08:32:55.586Z,100172.41
2018-05-14T08:33:58.117Z,100171.83
2018-05-14T08:35:00.598Z,100173.20
2018-05-14T08:36:03.130Z,100171.83
2018-05-14T08:37:05.621Z,100176.55
2018-05-14T08:38:08.227Z,100173.20
2018-05-14T08:39:10.698Z,100170.45
2018-05-14T08:40:13.177Z,100172.23
2018-05-14T08:41:15.683Z,100173.03
2018-05-14T08:42:18.226Z,100178.16
2018-05-14T08:43:20.711Z,100182.70
2018-05-14T08:44:23.214Z,100177.58
2018-05-14T08:45:25.699Z,100180.34
2018-05-14T08:46:28.193Z,100180.34
2018-05-14T08:47:30.681Z,100174.81
2018-05-14T08:48:33.172Z,100175.22
2018-05-14T08:49:35.694Z,100183.91
2018-05-14T08:50:38.169Z,100175.61
2018-05-14T08:51:40.665Z,100171.47
2018-05-14T08:52:43.170Z,100174.05
2018-05-14T08:53:45.731Z,100170.31
2018-05-14T08:54:48.249Z,100174.05
2018-05-14T08:55:50.741Z,100174.05
2018-05-14T08:56:53.229Z,100164.56
2018-05-14T08:57:55.742Z,100177.62
2018-05-14T08:58:58.245Z,100178.02
2018-05-14T09:00:00.781Z,100177.62
2018-05-14T09:01:03.295Z,100173.88
2018-05-14T09:02:05.776Z,100170.13
2018-05-14T09:03:08.266Z,100164.60
2018-05-14T09:04:10.761Z,100167.77
2018-05-14T09:05:13.273Z,100166.39
2018-05-14T09:06:15.770Z,100164.03
2018-05-14T09:07:18.250Z,100165.81
2018-05-14T09:08:20.813Z,100164.03
2018-05-14T09:09:23.327Z,100163.05
2018-05-14T09:10:25.826Z,100168.57
2018-05-14T09:11:28.321Z,100164.03
2018-05-14T09:12:30.817Z,100172.14
2018-05-14T09:13:33.294Z,100166.61
2018-05-14T09:14:35.785Z,100165.81
2018-05-14T09:15:38.282Z,100171.16
2018-05-14T09:16:40.777Z,100168.80
2018-05-14T09:17:43.278Z,100163.67
2018-05-14T09:18:45.797Z,100167.23
2018-05-14T09:19:48.288Z,100168.39
2018-05-14T09:20:50.817Z,100169.20
2018-05-14T09:21:53.303Z,100165.05
2018-05-14T09:22:55.784Z,100167.81
2018-05-14T09:23:58.284Z,100167.67
2018-05-14T09:25:00.780Z,100169.05
2018-05-14T09:26:03.297Z,100171.96
2018-05-14T09:27:05.792Z,100176.91
2018-05-14T09:28:08.276Z,100171.96
2018-05-14T09:29:10.787Z,100176.91
2018-05-14T09:30:13.292Z,100171.81
2018-05-14T09:31:15.921Z,100172.22
2018-05-14T09:32:18.334Z,100168.62
2018-05-14T09:33:20.825Z,100167.67
2018-05-14T09:34:23.310Z,100169.45
2018-05-14T09:35:25.819Z,100176.19
2018-05-14T09:36:28.333Z,100173.02
2018-05-14T09:37:30.814Z,100169.27
2018-05-14T09:38:33.287Z,100168.47
2018-05-14T09:39:35.804Z,100169.85
2018-05-14T09:40:38.300Z,100159.59
2018-05-14T09:41:40.991Z,100165.13
2018-05-14T09:42:43.496Z,100164.14
2018-05-14T09:43:45.997Z,100166.91
2018-05-14T09:44:48.487Z,100171.45
2018-05-14T09:45:51.003Z,100165.93
2018-05-14T09:46:53.546Z,100168.69
2018-05-14T09:47:56.051Z,100162.77
2018-05-14T09:48:58.562Z,100162.58
2018-05-14T09:50:01.056Z,100168.91
2018-05-14T09:51:03.552Z,100169.49
2018-05-14T09:52:06.062Z,100165.75
2018-05-14T09:53:08.567Z,100165.17
2018-05-14T09:54:11.111Z,100162.41
2018-05-14T09:55:13.582Z,100170.12
2018-05-14T09:56:16.072Z,100168.34
2018-05-14T09:57:18.571Z,100165.57
2018-05-14T09:58:21.072Z,100163.61
2018-05-14T09:59:23.560Z,100161.25
2018-05-14T10:00:26.071Z,100160.45
2018-05-14T10:01:28.569Z,100159.47
2018-05-14T10:02:31.081Z,100155.72
2018-05-14T10:03:33.618Z,100160.84
2018-05-14T10:04:36.098Z,100159.87
2018-05-14T10:05:38.566Z,100156.52
2018-05-14T10:06:41.075Z,100162.05
2018-05-14T10:07:43.595Z,100163.25
2018-05-14T10:08:46.089Z,100161.06
2018-05-14T10:09:48.587Z,100154.16
2018-05-14T10:10:51.092Z,100154.96
2018-05-14T10:11:53.582Z,100152.59
2018-05-14T10:12:56.134Z,100148.85
2018-05-14T10:13:58.740Z,100155.77
2018-05-14T10:15:01.243Z,100158.92
2018-05-14T10:16:03.751Z,100155.18
2018-05-14T10:17:06.241Z,100157.14
2018-05-14T10:18:08.748Z,100153.80
2018-05-14T10:19:11.260Z,100157.95
2018-05-14T10:20:13.758Z,100154.20
2018-05-14T10:21:16.271Z,100152.23
2018-05-14T10:22:18.751Z,100152.42
2018-05-14T10:23:21.276Z,100155.41
2018-05-14T10:24:23.749Z,100155.00
2018-05-14T10:25:26.237Z,100155.00
2018-05-14T10:26:28.744Z,100153.05
2018-05-14T10:27:31.237Z,100149.88
2018-05-14T10:28:33.749Z,100152.64
2018-05-14T10:29:36.255Z,100151.08
2018-05-14T10:30:38.756Z,100153.45
2018-05-14T10:31:41.365Z,100159.37
2018-05-14T10:32:43.857Z,100154.83
2018-05-14T10:33:46.372Z,100155.23
2018-05-14T10:34:48.861Z,100154.25
2018-05-14T10:35:51.373Z,100156.43
2018-05-14T10:36:53.864Z,100152.28
2018-05-14T10:37:56.361Z,100156.83
2018-05-14T10:38:58.864Z,100156.20
2018-05-14T10:40:01.357Z,100152.06
2018-05-14T10:41:04.181Z,100156.61
2018-05-14T10:42:06.689Z,100153.27
2018-05-14T10:43:09.184Z,100150.09
2018-05-14T10:44:11.697Z,100158.80
2018-05-14T10:45:14.188Z,100149.52
2018-05-14T10:46:16.683Z,100150.50
2018-05-14T10:47:19.202Z,100157.45
2018-05-14T10:48:21.682Z,100150.55
2018-05-14T10:49:24.198Z,100156.12
2018-05-14T10:50:26.674Z,100152.77
2018-05-14T10:51:29.147Z,100149.03
2018-05-14T10:52:31.642Z,100154.78
2018-05-14T10:53:34.147Z,100152.99
2018-05-14T10:54:36.661Z,100152.66
2018-05-14T10:55:39.177Z,100148.92
2018-05-14T10:56:41.691Z,100144.20
2018-05-14T10:57:44.185Z,100142.23
2018-05-14T10:58:46.793Z,100140.27
2018-05-14T10:59:49.201Z,100152.13
2018-05-14T11:00:51.698Z,100150.75
2018-05-14T11:01:54.235Z,100141.47
2018-05-14T11:02:56.735Z,100145.62
2018-05-14T11:03:59.263Z,100148.20
2018-05-14T11:05:01.748Z,100147.22
2018-05-14T11:06:04.279Z,100147.62
2018-05-14T11:07:06.800Z,100153.95
2018-05-14T11:08:09.321Z,100150.61
2018-05-14T11:09:11.824Z,100150.44
2018-05-14T11:10:14.350Z,100153.77
2018-05-14T11:11:16.830Z,100146.28
2018-05-14T11:12:19.308Z,100146.28
2018-05-14T11:13:21.813Z,100143.34
2018-05-14T11:14:24.381Z,100146.11
2018-05-14T11:15:26.893Z,100143.73
2018-05-14T11:16:29.418Z,100144.95
2018-05-14T11:17:31.914Z,100141.38
2018-05-14T11:18:34.450Z,100146.33
2018-05-14T11:19:36.936Z,100141.38
2018-05-14T11:20:39.529Z,100140.00
2018-05-14T11:21:42.077Z,100137.05
2018-05-14T11:22:44.572Z,100142.18
2018-05-14T11:23:47.073Z,100142.22
2018-05-14T11:24:49.595Z,100136.29
2018-05-14T11:25:52.098Z,100139.09
2018-05-14T11:26:54.689Z,100140.12
2018-05-14T11:27:57.286Z,100150.95
2018-05-14T11:28:59.757Z,100138.92
2018-05-14T11:30:02.269Z,100145.66
2018-05-14T11:31:04.793Z,100145.66
2018-05-14T11:32:07.275Z,100150.78
2018-05-14T11:33:09.781Z,100146.63
2018-05-14T11:34:12.307Z,100146.81
2018-05-14T11:35:14.807Z,100143.87
2018-05-14T11:36:17.339Z,100147.21
2018-05-14T11:37:19.844Z,100150.56
2018-05-14T11:38:22.341Z,100150.95
2018-05-14T11:39:24.852Z,100143.65
2018-05-14T11:40:27.349Z,100153.50
2018-05-14T11:41:29.846Z,100150.73
2018-05-14T11:42:32.337Z,100143.02
2018-05-14T11:43:34.829Z,100147.17
2018-05-14T11:44:37.310Z,100157.42
2018-05-14T11:45:39.790Z,100148.73
2018-05-14T11:46:42.303Z,100151.09
2018-05-14T11:47:44.795Z,100148.73
2018-05-14T11:48:47.292Z,100158.01
2018-05-14T11:49:49.808Z,100151.50
2018-05-14T11:50:52.405Z,100151.50
2018-05-14T11:51:54.903Z,100157.25
2018-05-14T11:52:57.412Z,100157.03
2018-05-14T11:53:59.891Z,100153.06